Time;durP1;ratioP1;P1;durP2;ratioP2;P2;SDS_P1;SDS_P2;PMS_P1;PMS_P2;Temp;Humidity;BMP_temperature;BMP_pressure;BME280_temperature;BME280_humidity;BME280_pressure;Samples;Min_cycle;Max_cycle;Signal;HPM_P1;HPM_P2
2023/12/25 00:13:44;;;;;;;0.90;0.40;;;;;;;10.55;76.57;98331.97;32008583;27;20031;-65
2023/12/25 00:28:44;;;;;;;1.27;0.30;;;;;;;10.96;75.16;98346.63;32006518;27;20038;-65
2023/12/25 00:43:44;;;;;;;0.38;0.30;;;;;;;11.14;73.41;98362.66;32002383;27;41539;-65
2023/12/25 00:58:44;;;;;;;2.15;0.30;;;;;;;11.29;73.25;98364.16;32002489;27;42927;-65
2023/12/25 01:13:45;;;;;;;0.47;0.35;;;;;;;11.22;71.84;98384.72;32002157;27;27185;-66
2023/12/25 01:28:45;;;;;;;0.35;0.20;;;;;;;11.33;71.62;98384.00;32000602;27;42785;-65
2023/12/25 01:43:45;;;;;;;0.50;0.22;;;;;;;11.36;71.03;98394.25;32000038;27;22279;-66
2023/12/25 01:58:46;;;;;;;1.02;0.30;;;;;;;11.28;70.31;98421.19;32019964;27;20031;-66
2023/12/25 02:13:46;;;;;;;0.30;0.30;;;;;;;11.33;70.07;98439.97;32020184;27;43048;-65
2023/12/25 02:28:46;;;;;;;1.15;0.35;;;;;;;11.35;69.31;98469.91;32019659;27;20975;-66
2023/12/25 02:43:47;;;;;;;0.35;0.30;;;;;;;11.37;68.74;98493.69;32017114;27;20050;-66
2023/12/25 02:58:47;;;;;;;1.45;0.50;;;;;;;11.29;68.63;98519.59;32013952;27;41753;-66
2023/12/25 03:13:47;;;;;;;0.68;0.40;;;;;;;11.22;68.46;98550.81;32013096;27;40672;-67
2023/12/25 03:28:48;;;;;;;1.40;0.47;;;;;;;11.09;68.48;98565.03;32012769;27;20460;-67
2023/12/25 03:43:48;;;;;;;0.22;0.20;;;;;;;10.89;68.89;98572.28;32009865;27;42780;-67
2023/12/25 03:58:48;;;;;;;0.20;0.20;;;;;;;10.61;69.92;98538.81;32009678;27;41349;-66
2023/12/25 04:13:55;;;;;;;1.25;0.50;;;;;;;10.49;70.31;98541.31;32007756;27;42648;-66
2023/12/25 04:28:56;;;;;;;1.77;0.60;;;;;;;10.70;70.38;98529.53;32007009;27;20429;-66
2023/12/25 04:43:56;;;;;;;0.32;0.32;;;;;;;10.97;69.24;98548.88;32003906;27;20051;-67
2023/12/25 04:58:56;;;;;;;0.75;0.40;;;;;;;11.12;68.54;98559.25;32003613;27;20031;-65
2023/12/25 05:13:57;;;;;;;0.20;0.20;;;;;;;11.22;67.60;98604.13;32000445;27;41506;-66
2023/12/25 05:28:57;;;;;;;0.28;0.28;;;;;;;10.50;69.08;98581.03;32013403;27;20067;-67
2023/12/25 05:43:57;;;;;;;0.70;0.40;;;;;;;10.44;70.23;98576.56;32022473;27;20070;-66
2023/12/25 05:58:58;;;;;;;0.20;0.20;;;;;;;10.44;69.70;98592.53;32022474;27;20033;-66
2023/12/25 06:13:58;;;;;;;0.98;0.28;;;;;;;10.57;69.04;98591.66;32019341;27;20058;-67
2023/12/25 06:28:59;;;;;;;2.10;0.40;;;;;;;10.83;67.78;98585.44;32017026;27;41181;-65
2023/12/25 06:43:59;;;;;;;0.43;0.30;;;;;;;10.77;67.77;98620.91;32016446;27;20130;-65
2023/12/25 06:58:59;;;;;;;0.98;0.40;;;;;;;10.79;68.14;98616.19;32015217;27;21983;-66
2023/12/25 07:14:00;;;;;;;0.90;0.47;;;;;;;10.69;68.73;98647.78;32011795;27;42692;-67
2023/12/25 07:29:00;;;;;;;1.42;0.40;;;;;;;10.64;69.13;98651.03;32012164;27;23136;-66
2023/12/25 07:44:02;;;;;;;1.05;0.60;;;;;;;10.69;68.90;98666.41;31962853;27;29169;-64
2023/12/25 07:59:02;;;;;;;0.70;0.40;;;;;;;10.82;68.30;98674.34;31879802;27;20488;-65
2023/12/25 08:14:02;;;;;;;2.05;0.63;;;;;;;10.91;67.62;98714.13;31877575;27;42604;-65
2023/12/25 08:29:03;;;;;;;1.40;0.60;;;;;;;10.86;67.54;98736.03;31876362;27;41408;-64
2023/12/25 08:44:03;;;;;;;0.40;0.40;;;;;;;10.69;68.29;98753.47;31874411;27;20048;-64
2023/12/25 08:59:05;;;;;;;1.65;0.40;;;;;;;10.46;69.26;98786.66;31871657;27;20031;-66
2023/12/25 09:14:06;;;;;;;1.05;0.40;;;;;;;10.39;70.74;98789.31;31871425;27;20080;-66
2023/12/25 09:29:09;;;;;;;2.45;0.60;;;;;;;10.15;72.02;98796.81;31870313;27;20024;-64
2023/12/25 09:44:09;;;;;;;0.80;0.70;;;;;;;9.98;73.19;98808.88;31868325;27;20051;-66
2023/12/25 09:59:10;;;;;;;1.90;1.02;;;;;;;10.15;73.89;98815.44;31868168;27;20028;-65
2023/12/25 10:14:10;;;;;;;1.40;0.60;;;;;;;10.37;73.81;98809.19;31878382;27;20440;-65
2023/12/25 10:29:11;;;;;;;1.60;0.80;;;;;;;10.41;74.25;98837.03;31887402;27;41478;-66
2023/12/25 10:44:12;;;;;;;2.08;0.88;;;;;;;10.52;73.31;98832.97;31884914;27;20077;-65
2023/12/25 10:59:15;;;;;;;0.88;0.70;;;;;;;10.85;72.41;98827.63;31883525;27;41844;-66
2023/12/25 11:14:16;;;;;;;;;;;;;;;18.47;64.83;98824.19;31779164;27;96589;-65
2023/12/25 11:29:17;;;;;;;1.33;0.50;;;;;;;17.01;58.67;98824.56;31813150;27;97572;-66
2023/12/25 11:44:18;;;;;;;1.48;0.77;;;;;;;14.72;59.81;98822.13;31881235;27;20047;-67
2023/12/25 11:59:20;;;;;;;2.93;0.67;;;;;;;13.29;61.63;98842.06;31879982;27;20043;-66
2023/12/25 12:14:21;;;;;;;1.48;0.75;;;;;;;12.44;62.40;98838.03;31877841;27;20035;-65
2023/12/25 12:29:23;;;;;;;2.30;0.70;;;;;;;11.95;63.07;98879.56;31876184;27;20118;-66
2023/12/25 12:44:23;;;;;;;2.83;0.63;;;;;;;12.07;63.73;98883.19;31874147;27;20058;-66
2023/12/25 12:59:25;;;;;;;1.35;0.47;;;;;;;11.45;64.17;98898.72;31873904;27;20106;-66
2023/12/25 13:14:25;;;;;;;2.25;0.85;;;;;;;11.36;64.84;98908.81;31871587;27;20032;-66
2023/12/25 13:29:25;;;;;;;3.92;1.25;;;;;;;11.03;65.33;98927.47;31870165;27;20038;-66
2023/12/25 13:44:25;;;;;;;1.40;0.90;;;;;;;10.80;66.34;98958.78;31874118;27;41417;-66
2023/12/25 13:59:26;;;;;;;2.50;1.05;;;;;;;10.41;66.94;98965.63;31892049;27;20031;-67
2023/12/25 14:14:26;;;;;;;2.03;0.80;;;;;;;10.08;68.15;98968.94;31890068;27;24655;-67
2023/12/25 14:29:26;;;;;;;3.28;1.10;;;;;;;9.89;68.59;98996.28;31885278;27;42989;-66
2023/12/25 14:44:27;;;;;;;1.55;0.80;;;;;;;9.82;68.75;99007.66;31887164;27;20035;-66
2023/12/25 14:59:27;;;;;;;3.28;1.30;;;;;;;9.85;68.59;99035.72;31885584;27;20441;-67
2023/12/25 15:14:27;;;;;;;2.10;0.90;;;;;;;9.69;68.67;99049.31;31882861;27;42892;-67
2023/12/25 15:29:28;;;;;;;1.92;1.08;;;;;;;9.59;69.39;99076.22;31883956;27;20032;-67
2023/12/25 15:44:28;;;;;;;1.38;0.80;;;;;;;9.60;69.53;99075.22;31881246;27;20492;-67
2023/12/25 15:59:28;;;;;;;3.42;1.35;;;;;;;9.65;70.37;99104.72;31880783;27;20922;-66
2023/12/25 16:14:28;;;;;;;4.10;1.02;;;;;;;9.70;70.18;99101.50;31876376;27;42680;-67
2023/12/25 16:29:29;;;;;;;4.07;1.30;;;;;;;9.76;69.82;99122.81;31876111;27;41464;-66
2023/12/25 16:44:29;;;;;;;2.55;1.40;;;;;;;9.77;69.51;99166.19;31874187;27;20052;-67
2023/12/25 16:59:31;;;;;;;2.63;1.50;;;;;;;9.77;69.51;99182.16;31873211;27;20055;-66
2023/12/25 17:14:32;;;;;;;4.13;1.55;;;;;;;9.71;69.57;99217.50;31872038;27;20030;-67
2023/12/25 17:29:33;;;;;;;3.10;1.02;;;;;;;9.63;69.72;99229.06;31870796;27;20562;-67
2023/12/25 17:44:34;;;;;;;2.20;1.40;;;;;;;9.56;69.32;99230.84;31871310;27;20040;-66
2023/12/25 17:59:35;;;;;;;3.97;1.40;;;;;;;9.51;69.47;99236.69;31869682;27;20035;-68
2023/12/25 18:14:35;;;;;;;4.03;0.80;;;;;;;9.55;69.25;99247.78;31867181;27;43229;-66
2023/12/25 18:29:35;;;;;;;3.03;1.30;;;;;;;9.57;69.35;99256.41;31870836;27;37253;-66
2023/12/25 18:44:36;;;;;;;4.45;1.10;;;;;;;9.58;69.22;99292.59;31885801;27;41554;-66
2023/12/25 18:59:36;;;;;;;2.13;1.20;;;;;;;9.63;69.06;99287.56;31885899;27;20384;-67
2023/12/25 19:14:37;;;;;;;1.88;0.90;;;;;;;9.64;68.37;99268.75;31885681;27;20495;-66
2023/12/25 19:29:40;;;;;;;2.83;0.93;;;;;;;9.54;68.71;99254.09;31883514;27;41608;-66
2023/12/25 19:44:40;;;;;;;1.70;0.77;;;;;;;9.51;69.14;99300.50;31881043;27;20051;-66
2023/12/25 19:59:40;;;;;;;2.00;1.10;;;;;;;9.46;69.50;99297.59;31879011;27;20103;-66
2023/12/25 20:14:41;;;;;;;2.08;0.88;;;;;;;9.37;69.60;99306.66;31878691;27;20427;-66
2023/12/25 20:29:41;;;;;;;2.45;1.45;;;;;;;9.32;69.66;99315.19;31877929;27;20028;-66
2023/12/25 20:44:42;;;;;;;2.40;0.90;;;;;;;9.27;69.96;99333.53;31874677;27;20723;-66
2023/12/25 20:59:42;;;;;;;2.67;1.10;;;;;;;9.31;69.34;99343.59;31874046;27;20100;-66
2023/12/25 21:14:42;;;;;;;3.90;1.00;;;;;;;9.28;70.19;99372.38;31871303;27;42890;-66
2023/12/25 21:29:43;;;;;;;3.33;0.90;;;;;;;9.24;69.94;99363.09;31872010;27;20039;-68
2023/12/25 21:44:43;;;;;;;2.65;0.90;;;;;;;9.24;69.66;99349.81;31870446;27;20062;-66
2023/12/25 21:59:43;;;;;;;3.45;1.10;;;;;;;9.18;69.58;99359.34;31869886;27;20031;-67
2023/12/25 22:14:44;;;;;;;3.65;1.35;;;;;;;9.06;70.38;99377.59;31887335;27;20031;-66
2023/12/25 22:29:44;;;;;;;1.25;0.88;;;;;;;8.89;70.72;99362.78;31890119;27;42919;-67
2023/12/25 22:44:44;;;;;;;3.10;1.17;;;;;;;8.63;72.16;99340.09;31888842;27;20491;-65
2023/12/25 22:59:45;;;;;;;3.13;0.90;;;;;;;8.42;72.79;99312.34;31886214;27;42902;-65
2023/12/25 23:14:45;;;;;;;1.27;0.98;;;;;;;8.41;73.46;99316.00;31884456;27;28171;-66
2023/12/25 23:29:45;;;;;;;3.17;1.60;;;;;;;8.44;74.11;99310.34;31883890;27;37040;-65
2023/12/25 23:44:45;;;;;;;2.80;1.50;;;;;;;8.35;74.76;99300.81;31881593;27;42743;-65
2023/12/25 23:59:46;;;;;;;4.20;1.90;;;;;;;8.52;75.16;99292.75;31881458;27;20027;-66
